Time;durP1;ratioP1;P1;durP2;ratioP2;P2;SDS_P1;SDS_P2;PMS_P1;PMS_P2;Temp;Humidity;BMP_temperature;BMP_pressure;BME280_temperature;BME280_humidity;BME280_pressure;Samples;Min_cycle;Max_cycle;Signal;HPM_P1;HPM_P2
2023/12/02 00:02:07;;;;;;;;;;;;;;;;;;5005407;28;20329;-84
2023/12/02 00:04:32;;;;;;;;;;;;;;;;;;5011033;28;19944;-83
2023/12/02 00:06:57;;;;;;;;;;;;;;;;;;5010549;28;20056;-85
2023/12/02 00:09:23;;;;;;;;;;;;;;;;;;5014177;28;20052;-84
2023/12/02 00:11:48;;;;;;;;;;;;;;;;;;5012254;28;19922;-85
2023/12/02 00:14:13;;;;;;;;;;;;;;;;;;5045882;28;20029;-84
2023/12/02 00:16:38;;;;;;;;;;;;;;;;;;5014525;28;20004;-84
2023/12/02 00:19:03;;;;;;;;;;;;;;;;;;5011693;28;19921;-83
2023/12/02 00:21:28;;;;;;;;;;;;;;;;;;5043717;28;20314;-84
2023/12/02 00:23:54;;;;;;;;;;;;;;;;;;5011063;28;19921;-84
2023/12/02 00:26:37;;;;;;;;;;;;;;;;;;5011253;28;19964;-83
2023/12/02 00:29:05;;;;;;;;;;;;;;;;;;5021564;28;20160;-86
2023/12/02 00:31:30;;;;;;;;;;;;;;;;;;5011729;28;19925;-85
2023/12/02 00:33:57;;;;;;;;;;;;;;;;;;5015529;28;19922;-83
2023/12/02 00:36:22;;;;;;;;;;;;;;;;;;5035181;28;19924;-84
2023/12/02 00:38:47;;;;;;;;;;;;;;;;;;5021155;28;19921;-84
2023/12/02 00:41:12;;;;;;;;;;;;;;;;;;5019313;28;19921;-86
2023/12/02 00:43:37;;;;;;;;;;;;;;;;;;5021553;28;19917;-84
2023/12/02 00:46:02;;;;;;;;;;;;;;;;;;5023715;28;19947;-85
2023/12/02 00:48:28;;;;;;;;;;;;;;;;;;5026262;28;19933;-83
2023/12/02 00:50:53;;;;;;;;;;;;;;;;;;5024177;28;19952;-83
2023/12/02 00:53:18;;;;;;;;;;;;;;;;;;5047587;28;20008;-83
2023/12/02 00:55:43;;;;;;;;;;;;;;;;;;5041721;28;20744;-84
2023/12/02 00:58:08;;;;;;;;;;;;;;;;;;5031082;28;19917;-83
2023/12/02 01:00:34;;;;;;;;;;;;;;;;;;5014753;28;19918;-86
2023/12/02 01:02:59;;;;;;;;;;;;;;;;;;5020392;28;19928;-83
2023/12/02 01:05:24;;;;;;;;;;;;;;;;;;5018354;28;19986;-83
2023/12/02 01:07:49;;;;;;;;;;;;;;;;;;5013984;28;19924;-82
2023/12/02 01:10:15;;;;;;;;;;;;;;;;;;5050117;28;19921;-82
2023/12/02 01:12:40;;;;;;;;;;;;;;;;;;5022858;28;19926;-83
2023/12/02 01:15:05;;;;;;;;;;;;;;;;;;5016598;28;19922;-82
2023/12/02 01:17:30;;;;;;;;;;;;;;;;;;5024721;28;19940;-85
2023/12/02 01:19:55;;;;;;;;;;;;;;;;;;5017557;28;19921;-83
2023/12/02 01:22:20;;;;;;;;;;;;;;;;;;5041254;28;19969;-83
2023/12/02 01:24:45;;;;;;;;;;;;;;;;;;5013558;28;19983;-82
2023/12/02 01:27:10;;;;;;;;;;;;;;;;;;5013217;28;20337;-83
2023/12/02 01:29:35;;;;;;;;;;;;;;;;;;5013057;28;19918;-82
2023/12/02 01:32:00;;;;;;;;;;;;;;;;;;5047317;28;19921;-82
2023/12/02 01:34:26;;;;;;;;;;;;;;;;;;5044306;28;20031;-83
2023/12/02 01:36:51;;;;;;;;;;;;;;;;;;5013447;28;20008;-83
2023/12/02 01:39:16;;;;;;;;;;;;;;;;;;5022480;28;20406;-82
2023/12/02 01:41:41;;;;;;;;;;;;;;;;;;5013158;28;19921;-82
2023/12/02 01:44:06;;;;;;;;;;;;;;;;;;5013779;28;19921;-83
2023/12/02 01:46:31;;;;;;;;;;;;;;;;;;5014720;28;20463;-83
2023/12/02 01:48:58;;;;;;;;;;;;;;;;;;5023163;28;19925;-84
2023/12/02 01:51:23;;;;;;;;;;;;;;;;;;5013681;28;19926;-82
2023/12/02 01:53:48;;;;;;;;;;;;;;;;;;5014815;28;19917;-83
2023/12/02 01:56:16;;;;;;;;;;;;;;;;;;5044514;28;22293;-83
2023/12/02 01:58:41;;;;;;;;;;;;;;;;;;5013165;28;19996;-84
2023/12/02 02:01:06;;;;;;;;;;;;;;;;;;5014495;28;19956;-83
2023/12/02 02:03:31;;;;;;;;;;;;;;;;;;5012057;28;19967;-84
2023/12/02 02:05:56;;;;;;;;;;;;;;;;;;5045246;28;19927;-84
2023/12/02 02:08:21;;;;;;;;;;;;;;;;;;5041243;28;19926;-84
2023/12/02 02:10:46;;;;;;;;;;;;;;;;;;5013536;28;19921;-84
2023/12/02 02:13:11;;;;;;;;;;;;;;;;;;5018568;28;19926;-85
2023/12/02 02:15:37;;;;;;;;;;;;;;;;;;5050406;28;19921;-84
2023/12/02 02:18:02;;;;;;;;;;;;;;;;;;5042935;28;19921;-85
2023/12/02 02:20:27;;;;;;;;;;;;;;;;;;5018827;28;19996;-83
2023/12/02 02:22:52;;;;;;;;;;;;;;;;;;5021407;28;19925;-83
2023/12/02 02:25:17;;;;;;;;;;;;;;;;;;5044970;28;19976;-85
2023/12/02 02:27:42;;;;;;;;;;;;;;;;;;5019920;28;19933;-85
2023/12/02 02:30:08;;;;;;;;;;;;;;;;;;5044396;28;19922;-85
2023/12/02 02:32:33;;;;;;;;;;;;;;;;;;5021479;28;19932;-84
2023/12/02 02:34:58;;;;;;;;;;;;;;;;;;5049060;28;19926;-85
2023/12/02 02:37:23;;;;;;;;;;;;;;;;;;5021078;28;19925;-83
2023/12/02 02:39:48;;;;;;;;;;;;;;;;;;5021639;28;19975;-85
2023/12/02 02:42:13;;;;;;;;;;;;;;;;;;5052497;28;19926;-84
2023/12/02 02:44:38;;;;;;;;;;;;;;;;;;5020278;28;20000;-84
2023/12/02 02:47:03;;;;;;;;;;;;;;;;;;5019847;28;19932;-84
2023/12/02 02:49:29;;;;;;;;;;;;;;;;;;5021745;28;19921;-83
2023/12/02 02:51:54;;;;;;;;;;;;;;;;;;5046210;28;19926;-84
2023/12/02 02:54:19;;;;;;;;;;;;;;;;;;5041210;28;19989;-85
2023/12/02 02:56:44;;;;;;;;;;;;;;;;;;5023650;28;19941;-84
2023/12/02 02:59:09;;;;;;;;;;;;;;;;;;5024519;28;19949;-84
2023/12/02 03:01:34;;;;;;;;;;;;;;;;;;5023795;28;19921;-86
2023/12/02 03:03:59;;;;;;;;;;;;;;;;;;5019535;28;19932;-85
2023/12/02 03:06:24;;;;;;;;;;;;;;;;;;5021249;28;19951;-84
2023/12/02 03:08:49;;;;;;;;;;;;;;;;;;5054681;28;19929;-84
2023/12/02 03:14:05;;;;;;;;;;;;;;;;;;5021780;28;20026;-85
2023/12/02 03:16:30;;;;;;;;;;;;;;;;;;5050154;28;19929;-83
2023/12/02 03:18:55;;;;;;;;;;;;;;;;;;5021839;28;19921;-84
2023/12/02 03:21:21;;;;;;;;;;;;;;;;;;5051051;28;19929;-84
2023/12/02 03:23:46;;;;;;;;;;;;;;;;;;5022067;28;19922;-84
2023/12/02 03:26:11;;;;;;;;;;;;;;;;;;5021736;28;19921;-85
2023/12/02 03:28:36;;;;;;;;;;;;;;;;;;5020634;28;19921;-84
2023/12/02 03:31:01;;;;;;;;;;;;;;;;;;5051301;28;19932;-84
2023/12/02 03:33:26;;;;;;;;;;;;;;;;;;5022607;28;20410;-84
2023/12/02 03:35:51;;;;;;;;;;;;;;;;;;5022955;28;19928;-85
2023/12/02 03:38:16;;;;;;;;;;;;;;;;;;5022048;28;19922;-85
2023/12/02 03:40:41;;;;;;;;;;;;;;;;;;5023540;28;19932;-84
2023/12/02 03:43:07;;;;;;;;;;;;;;;;;;5024025;28;19922;-84
2023/12/02 03:45:32;;;;;;;;;;;;;;;;;;5047693;28;19921;-86
2023/12/02 03:47:57;;;;;;;;;;;;;;;;;;5053995;28;20005;-84
2023/12/02 03:50:22;;;;;;;;;;;;;;;;;;5023286;28;19964;-85
2023/12/02 03:52:47;;;;;;;;;;;;;;;;;;5022525;28;19960;-84
2023/12/02 03:55:13;;;;;;;;;;;;;;;;;;5019480;28;19928;-86
2023/12/02 03:57:38;;;;;;;;;;;;;;;;;;5021595;28;20418;-85
2023/12/02 04:00:10;;;;;;;;;;;;;;;;;;5020772;28;20062;-85
2023/12/02 04:02:36;;;;;;;;;;;;;;;;;;5020996;28;19910;-87
2023/12/02 04:05:01;;;;;;;;;;;;;;;;;;5023804;28;19917;-86
2023/12/02 04:07:26;;;;;;;;;;;;;;;;;;5023975;28;19922;-85
2023/12/02 04:09:51;;;;;;;;;;;;;;;;;;5048118;28;19922;-86
2023/12/02 04:12:16;;;;;;;;;;;;;;;;;;5022633;28;20210;-85
2023/12/02 04:14:41;;;;;;;;;;;;;;;;;;5047338;28;19948;-84
2023/12/02 04:17:08;;;;;;;;;;;;;;;;;;5049133;28;19917;-84
2023/12/02 04:19:33;;;;;;;;;;;;;;;;;;5021262;28;19926;-84
2023/12/02 04:21:58;;;;;;;;;;;;;;;;;;5047545;28;19948;-84
2023/12/02 04:24:23;;;;;;;;;;;;;;;;;;5014943;28;19972;-86
2023/12/02 04:26:49;;;;;;;;;;;;;;;;;;5056150;28;19921;-85
2023/12/02 04:29:14;;;;;;;;;;;;;;;;;;5024339;28;19929;-86
2023/12/02 04:31:39;;;;;;;;;;;;;;;;;;5045176;28;19948;-85
2023/12/02 04:34:04;;;;;;;;;;;;;;;;;;5020438;28;19928;-85
2023/12/02 04:36:30;;;;;;;;;;;;;;;;;;5044249;28;19925;-86
2023/12/02 04:38:56;;;;;;;;;;;;;;;;;;5013311;28;19956;-85
2023/12/02 04:41:21;;;;;;;;;;;;;;;;;;5012689;28;19968;-85
2023/12/02 04:43:46;;;;;;;;;;;;;;;;;;5035201;28;19992;-84
2023/12/02 04:46:11;;;;;;;;;;;;;;;;;;5009219;28;20263;-86
2023/12/02 04:48:37;;;;;;;;;;;;;;;;;;5009298;28;19921;-86
2023/12/02 04:51:02;;;;;;;;;;;;;;;;;;5013143;28;19925;-84
2023/12/02 04:53:27;;;;;;;;;;;;;;;;;;5043785;28;19921;-86
2023/12/02 04:55:52;;;;;;;;;;;;;;;;;;5045955;28;19918;-85
2023/12/02 04:58:17;;;;;;;;;;;;;;;;;;5017756;28;20000;-84
2023/12/02 05:00:42;;;;;;;;;;;;;;;;;;5045087;28;19917;-84
2023/12/02 05:03:08;;;;;;;;;;;;;;;;;;5022338;28;20172;-85
2023/12/02 05:05:33;;;;;;;;;;;;;;;;;;5049130;28;19929;-84
2023/12/02 05:07:58;;;;;;;;;;;;;;;;;;5023724;28;19921;-85
2023/12/02 05:10:23;;;;;;;;;;;;;;;;;;5021435;28;20000;-85
2023/12/02 05:12:48;;;;;;;;;;;;;;;;;;5013942;28;20011;-85
2023/12/02 05:15:14;;;;;;;;;;;;;;;;;;5055672;28;19928;-84
2023/12/02 05:17:39;;;;;;;;;;;;;;;;;;5021285;28;20168;-84
2023/12/02 05:20:05;;;;;;;;;;;;;;;;;;5044558;28;19925;-84
2023/12/02 05:22:30;;;;;;;;;;;;;;;;;;5010879;28;19921;-84
2023/12/02 05:24:55;;;;;;;;;;;;;;;;;;5013802;28;20072;-84
2023/12/02 05:27:20;;;;;;;;;;;;;;;;;;5012592;28;19949;-84
2023/12/02 05:29:46;;;;;;;;;;;;;;;;;;5012086;28;19960;-84
2023/12/02 05:32:11;;;;;;;;;;;;;;;;;;5012442;28;19979;-85
2023/12/02 05:34:36;;;;;;;;;;;;;;;;;;5031890;28;19921;-84
2023/12/02 05:37:01;;;;;;;;;;;;;;;;;;5013291;28;20411;-84
2023/12/02 05:39:26;;;;;;;;;;;;;;;;;;5012668;28;20391;-84
2023/12/02 05:41:51;;;;;;;;;;;;;;;;;;5013999;28;20112;-84
2023/12/02 05:44:16;;;;;;;;;;;;;;;;;;5036250;28;20378;-84
2023/12/02 05:46:41;;;;;;;;;;;;;;;;;;5012923;28;19925;-84
2023/12/02 05:49:07;;;;;;;;;;;;;;;;;;5045827;28;20298;-84
2023/12/02 05:51:32;;;;;;;;;;;;;;;;;;5017944;28;19936;-86
2023/12/02 05:53:58;;;;;;;;;;;;;;;;;;5050943;28;19928;-85
2023/12/02 05:56:23;;;;;;;;;;;;;;;;;;5015718;28;19933;-85
2023/12/02 05:58:48;;;;;;;;;;;;;;;;;;5017907;28;19922;-85
2023/12/02 06:01:13;;;;;;;;;;;;;;;;;;5014296;28;19922;-85
2023/12/02 06:03:39;;;;;;;;;;;;;;;;;;5036462;28;19929;-84
2023/12/02 06:06:04;;;;;;;;;;;;;;;;;;5012564;28;20314;-85
2023/12/02 06:08:29;;;;;;;;;;;;;;;;;;5036451;28;19925;-84
2023/12/02 06:10:54;;;;;;;;;;;;;;;;;;5012276;28;19922;-84
2023/12/02 06:13:19;;;;;;;;;;;;;;;;;;5009528;28;19917;-84
2023/12/02 06:15:44;;;;;;;;;;;;;;;;;;5014705;28;20060;-84
2023/12/02 06:18:09;;;;;;;;;;;;;;;;;;5010360;28;19929;-84
2023/12/02 06:20:34;;;;;;;;;;;;;;;;;;5013016;28;19944;-84
2023/12/02 06:22:59;;;;;;;;;;;;;;;;;;5012226;28;20296;-86
2023/12/02 06:25:25;;;;;;;;;;;;;;;;;;5013521;28;19928;-84
2023/12/02 06:27:50;;;;;;;;;;;;;;;;;;5050247;28;19922;-84
2023/12/02 06:30:16;;;;;;;;;;;;;;;;;;5012503;28;19960;-83
2023/12/02 06:32:41;;;;;;;;;;;;;;;;;;5018893;28;19925;-85
2023/12/02 06:35:06;;;;;;;;;;;;;;;;;;5039485;28;19929;-84
2023/12/02 06:37:31;;;;;;;;;;;;;;;;;;5007876;28;19921;-84
2023/12/02 06:39:56;;;;;;;;;;;;;;;;;;5045187;28;20403;-84
2023/12/02 06:42:21;;;;;;;;;;;;;;;;;;5018894;28;19933;-85
2023/12/02 06:44:46;;;;;;;;;;;;;;;;;;5012576;28;19976;-84
2023/12/02 06:47:13;;;;;;;;;;;;;;;;;;5013988;28;19922;-85
2023/12/02 06:49:38;;;;;;;;;;;;;;;;;;5019465;28;19983;-84
2023/12/02 06:52:03;;;;;;;;;;;;;;;;;;5021077;28;19925;-84
2023/12/02 06:54:28;;;;;;;;;;;;;;;;;;5012582;28;19972;-85
2023/12/02 06:56:53;;;;;;;;;;;;;;;;;;5013893;28;20020;-85
2023/12/02 06:59:18;;;;;;;;;;;;;;;;;;5040658;28;19921;-85
2023/12/02 07:01:44;;;;;;;;;;;;;;;;;;5013391;28;19922;-84
2023/12/02 07:04:10;;;;;;;;;;;;;;;;;;5010759;28;19926;-85
2023/12/02 07:06:35;;;;;;;;;;;;;;;;;;5042486;28;19929;-83
2023/12/02 07:09:00;;;;;;;;;;;;;;;;;;5021353;28;19917;-84
2023/12/02 07:11:25;;;;;;;;;;;;;;;;;;5052848;28;19930;-87
2023/12/02 07:13:50;;;;;;;;;;;;;;;;;;5019820;28;19964;-88
2023/12/02 07:16:15;;;;;;;;;;;;;;;;;;5025619;28;19921;-85
2023/12/02 07:18:41;;;;;;;;;;;;;;;;;;5054058;28;19977;-85
2023/12/02 07:21:06;;;;;;;;;;;;;;;;;;5016603;28;19969;-87
2023/12/02 07:23:31;;;;;;;;;;;;;;;;;;5038063;28;19918;-84
2023/12/02 07:25:56;;;;;;;;;;;;;;;;;;5020751;28;19994;-85
2023/12/02 07:28:21;;;;;;;;;;;;;;;;;;5054048;28;19922;-84
2023/12/02 07:30:48;;;;;;;;;;;;;;;;;;5020721;28;19925;-86
2023/12/02 07:33:13;;;;;;;;;;;;;;;;;;5020285;28;19926;-85
2023/12/02 07:35:38;;;;;;;;;;;;;;;;;;5045277;28;20363;-86
2023/12/02 07:38:03;;;;;;;;;;;;;;;;;;5020354;28;19933;-84
2023/12/02 07:40:28;;;;;;;;;;;;;;;;;;5014473;28;19967;-85
2023/12/02 07:42:53;;;;;;;;;;;;;;;;;;5011749;28;20098;-85
2023/12/02 07:45:18;;;;;;;;;;;;;;;;;;5010475;28;20342;-85
2023/12/02 07:47:43;;;;;;;;;;;;;;;;;;5041426;28;19971;-86
2023/12/02 07:50:09;;;;;;;;;;;;;;;;;;5011716;28;19975;-85
2023/12/02 07:52:34;;;;;;;;;;;;;;;;;;5049364;28;19941;-85
2023/12/02 07:54:59;;;;;;;;;;;;;;;;;;5030714;28;19922;-84
2023/12/02 07:57:24;;;;;;;;;;;;;;;;;;5016124;28;20020;-84
2023/12/02 07:59:49;;;;;;;;;;;;;;;;;;5056773;28;19918;-84
2023/12/02 08:02:14;;;;;;;;;;;;;;;;;;5024915;28;20012;-86
2023/12/02 08:04:39;;;;;;;;;;;;;;;;;;5022021;28;19973;-86
2023/12/02 08:07:04;;;;;;;;;;;;;;;;;;5020220;28;19931;-84
2023/12/02 08:09:29;;;;;;;;;;;;;;;;;;5054248;28;20005;-84
2023/12/02 08:11:54;;;;;;;;;;;;;;;;;;5019031;28;19933;-84
2023/12/02 08:14:19;;;;;;;;;;;;;;;;;;5051756;28;19940;-86
2023/12/02 08:16:45;;;;;;;;;;;;;;;;;;5019830;28;19921;-84
2023/12/02 08:19:10;;;;;;;;;;;;;;;;;;5029463;28;20019;-85
2023/12/02 08:21:35;;;;;;;;;;;;;;;;;;5024148;28;19917;-87
2023/12/02 08:24:00;;;;;;;;;;;;;;;;;;5024446;28;19929;-86
2023/12/02 08:26:28;;;;;;;;;;;;;;;;;;5060420;28;19921;-86
2023/12/02 08:28:53;;;;;;;;;;;;;;;;;;5022889;28;21119;-87
2023/12/02 08:31:18;;;;;;;;;;;;;;;;;;5055412;28;19932;-85
2023/12/02 08:33:43;;;;;;;;;;;;;;;;;;5022425;28;19917;-85
2023/12/02 08:36:08;;;;;;;;;;;;;;;;;;5030779;28;19921;-85
2023/12/02 08:38:33;;;;;;;;;;;;;;;;;;5024878;28;19918;-85
2023/12/02 08:40:59;;;;;;;;;;;;;;;;;;5024467;28;19922;-84
2023/12/02 08:43:24;;;;;;;;;;;;;;;;;;5016203;28;19917;-87
2023/12/02 08:45:49;;;;;;;;;;;;;;;;;;5021931;28;19929;-85
2023/12/02 08:48:14;;;;;;;;;;;;;;;;;;5015785;28;20000;-85
2023/12/02 08:50:39;;;;;;;;;;;;;;;;;;5013198;28;20336;-86
2023/12/02 08:53:04;;;;;;;;;;;;;;;;;;5013193;28;20484;-86
2023/12/02 08:55:29;;;;;;;;;;;;;;;;;;5013425;28;19925;-86
2023/12/02 08:57:54;;;;;;;;;;;;;;;;;;5010804;28;19922;-86
2023/12/02 09:00:19;;;;;;;;;;;;;;;;;;5012431;28;20364;-85
2023/12/02 09:02:45;;;;;;;;;;;;;;;;;;5011137;28;19918;-85
2023/12/02 09:05:10;;;;;;;;;;;;;;;;;;5012037;28;19917;-85
2023/12/02 09:07:35;;;;;;;;;;;;;;;;;;5013666;28;19922;-86
2023/12/02 09:10:00;;;;;;;;;;;;;;;;;;5016360;28;20360;-86
2023/12/02 09:12:25;;;;;;;;;;;;;;;;;;5016102;28;19930;-86
2023/12/02 09:14:50;;;;;;;;;;;;;;;;;;5014516;28;20017;-86
2023/12/02 09:17:15;;;;;;;;;;;;;;;;;;5020616;28;19924;-85
2023/12/02 09:19:40;;;;;;;;;;;;;;;;;;5047975;28;20020;-86
2023/12/02 09:22:05;;;;;;;;;;;;;;;;;;5015268;28;19993;-85
2023/12/02 09:24:31;;;;;;;;;;;;;;;;;;5019723;28;20592;-86
2023/12/02 09:26:56;;;;;;;;;;;;;;;;;;5047733;28;19981;-86
2023/12/02 09:29:21;;;;;;;;;;;;;;;;;;5017057;28;20012;-86
2023/12/02 09:31:46;;;;;;;;;;;;;;;;;;5014336;28;19947;-86
2023/12/02 09:34:11;;;;;;;;;;;;;;;;;;5015395;28;19921;-86
2023/12/02 09:36:36;;;;;;;;;;;;;;;;;;5015295;28;20299;-86
2023/12/02 09:39:01;;;;;;;;;;;;;;;;;;5019820;28;20005;-86
2023/12/02 09:41:28;;;;;;;;;;;;;;;;;;5021257;28;19921;-86
2023/12/02 09:43:53;;;;;;;;;;;;;;;;;;5023757;28;19929;-85
2023/12/02 09:46:19;;;;;;;;;;;;;;;;;;5021706;28;19921;-86
2023/12/02 09:48:44;;;;;;;;;;;;;;;;;;5040161;28;19924;-85
2023/12/02 09:51:09;;;;;;;;;;;;;;;;;;5041808;28;20346;-86
2023/12/02 09:53:34;;;;;;;;;;;;;;;;;;5040766;28;19972;-85
2023/12/02 09:56:00;;;;;;;;;;;;;;;;;;5010580;28;20387;-85
2023/12/02 09:58:25;;;;;;;;;;;;;;;;;;5033354;28;20276;-85
2023/12/02 10:00:50;;;;;;;;;;;;;;;;;;5010814;28;19929;-85
2023/12/02 10:03:15;;;;;;;;;;;;;;;;;;5013960;28;19918;-85
2023/12/02 10:05:40;;;;;;;;;;;;;;;;;;5012448;28;20118;-85
2023/12/02 10:08:05;;;;;;;;;;;;;;;;;;5037198;28;20391;-86
2023/12/02 10:10:30;;;;;;;;;;;;;;;;;;5036525;28;19921;-86
2023/12/02 10:12:56;;;;;;;;;;;;;;;;;;5007814;28;19953;-85
2023/12/02 10:15:21;;;;;;;;;;;;;;;;;;5016778;28;19921;-85
2023/12/02 10:17:46;;;;;;;;;;;;;;;;;;5015878;28;20366;-85
2023/12/02 10:20:12;;;;;;;;;;;;;;;;;;5012045;28;19921;-85
2023/12/02 10:22:37;;;;;;;;;;;;;;;;;;5013427;28;19941;-85
2023/12/02 10:25:02;;;;;;;;;;;;;;;;;;5029027;28;19921;-85
2023/12/02 10:27:27;;;;;;;;;;;;;;;;;;5011904;28;20351;-86
2023/12/02 10:29:52;;;;;;;;;;;;;;;;;;5012523;28;19922;-85
2023/12/02 10:32:17;;;;;;;;;;;;;;;;;;5011443;28;19944;-85
2023/12/02 10:34:42;;;;;;;;;;;;;;;;;;5013510;28;20063;-85
2023/12/02 10:37:07;;;;;;;;;;;;;;;;;;5036459;28;19928;-85
2023/12/02 10:39:32;;;;;;;;;;;;;;;;;;5043954;28;19925;-85
2023/12/02 10:41:57;;;;;;;;;;;;;;;;;;5011992;28;19925;-85
2023/12/02 10:44:23;;;;;;;;;;;;;;;;;;5011404;28;19925;-85
2023/12/02 10:46:48;;;;;;;;;;;;;;;;;;5013848;28;20204;-85
2023/12/02 10:49:13;;;;;;;;;;;;;;;;;;5012649;28;19975;-85
2023/12/02 10:51:38;;;;;;;;;;;;;;;;;;5017851;28;19984;-85
2023/12/02 10:54:04;;;;;;;;;;;;;;;;;;5011838;28;19960;-85
2023/12/02 10:56:30;;;;;;;;;;;;;;;;;;5013580;28;19993;-85
2023/12/02 10:58:55;;;;;;;;;;;;;;;;;;5033936;28;19922;-85
2023/12/02 11:01:20;;;;;;;;;;;;;;;;;;5014792;28;20291;-85
2023/12/02 11:03:45;;;;;;;;;;;;;;;;;;5037633;28;19921;-87
2023/12/02 11:06:11;;;;;;;;;;;;;;;;;;5012212;28;19922;-85
2023/12/02 11:08:36;;;;;;;;;;;;;;;;;;5011998;28;20008;-85
2023/12/02 11:11:01;;;;;;;;;;;;;;;;;;5036514;28;19922;-87
2023/12/02 11:13:26;;;;;;;;;;;;;;;;;;5011537;28;19968;-85
2023/12/02 11:15:51;;;;;;;;;;;;;;;;;;5039422;28;19987;-85
2023/12/02 11:18:16;;;;;;;;;;;;;;;;;;5011248;28;19925;-85
2023/12/02 11:20:41;;;;;;;;;;;;;;;;;;5012407;28;19917;-85
2023/12/02 11:23:07;;;;;;;;;;;;;;;;;;5041761;28;20342;-85
2023/12/02 11:25:32;;;;;;;;;;;;;;;;;;5013313;28;19925;-85
2023/12/02 11:28:00;;;;;;;;;;;;;;;;;;5013627;28;19921;-85
2023/12/02 11:30:25;;;;;;;;;;;;;;;;;;5041919;28;20302;-84
2023/12/02 11:32:50;;;;;;;;;;;;;;;;;;5039955;28;19948;-85
2023/12/02 11:35:15;;;;;;;;;;;;;;;;;;5016373;28;19948;-85
2023/12/02 11:37:40;;;;;;;;;;;;;;;;;;5015784;28;19921;-85
2023/12/02 11:40:06;;;;;;;;;;;;;;;;;;5016101;28;19922;-85
2023/12/02 11:42:31;;;;;;;;;;;;;;;;;;5044080;28;20403;-85
2023/12/02 11:44:56;;;;;;;;;;;;;;;;;;5012147;28;19929;-85
2023/12/02 11:47:21;;;;;;;;;;;;;;;;;;5017205;28;19921;-85
2023/12/02 11:49:46;;;;;;;;;;;;;;;;;;5016241;28;19976;-85
2023/12/02 11:52:11;;;;;;;;;;;;;;;;;;5049625;28;20076;-84
2023/12/02 11:54:36;;;;;;;;;;;;;;;;;;5027673;28;19977;-85
2023/12/02 11:57:01;;;;;;;;;;;;;;;;;;5055029;28;19979;-87
2023/12/02 11:59:26;;;;;;;;;;;;;;;;;;5013052;28;19953;-84
2023/12/02 12:01:51;;;;;;;;;;;;;;;;;;5010857;28;19980;-87
2023/12/02 12:04:17;;;;;;;;;;;;;;;;;;5010129;28;20004;-87
2023/12/02 12:06:42;;;;;;;;;;;;;;;;;;5016655;28;20008;-87
2023/12/02 12:09:07;;;;;;;;;;;;;;;;;;5010399;28;19922;-86
2023/12/02 12:11:33;;;;;;;;;;;;;;;;;;5011480;28;20012;-87
2023/12/02 12:13:58;;;;;;;;;;;;;;;;;;5043608;28;19925;-86
2023/12/02 12:16:23;;;;;;;;;;;;;;;;;;5010518;28;19975;-87
2023/12/02 12:18:48;;;;;;;;;;;;;;;;;;5013001;28;19971;-85
2023/12/02 12:21:13;;;;;;;;;;;;;;;;;;5031854;28;19925;-85
2023/12/02 12:23:38;;;;;;;;;;;;;;;;;;5042246;28;19928;-86
2023/12/02 12:26:03;;;;;;;;;;;;;;;;;;5040917;28;19929;-85
2023/12/02 12:28:29;;;;;;;;;;;;;;;;;;5012933;28;20483;-86
2023/12/02 12:30:54;;;;;;;;;;;;;;;;;;5045220;28;19952;-86
2023/12/02 12:33:22;;;;;;;;;;;;;;;;;;5014755;28;19921;-86
2023/12/02 12:35:47;;;;;;;;;;;;;;;;;;5016044;28;19949;-86
2023/12/02 12:38:12;;;;;;;;;;;;;;;;;;5016362;28;20173;-86
2023/12/02 12:40:37;;;;;;;;;;;;;;;;;;5016590;28;19922;-85
2023/12/02 12:43:02;;;;;;;;;;;;;;;;;;5039302;28;19921;-86
2023/12/02 12:45:27;;;;;;;;;;;;;;;;;;5045499;28;19921;-86
2023/12/02 12:47:53;;;;;;;;;;;;;;;;;;5018230;28;20383;-86
2023/12/02 12:50:18;;;;;;;;;;;;;;;;;;5017962;28;19936;-86
2023/12/02 12:52:43;;;;;;;;;;;;;;;;;;5017965;28;19949;-85
2023/12/02 12:55:08;;;;;;;;;;;;;;;;;;5017413;28;19921;-86
2023/12/02 12:57:35;;;;;;;;;;;;;;;;;;5017561;28;20375;-86
2023/12/02 13:00:00;;;;;;;;;;;;;;;;;;5049445;28;19927;-86
2023/12/02 13:02:25;;;;;;;;;;;;;;;;;;5016007;28;19921;-86
2023/12/02 13:04:50;;;;;;;;;;;;;;;;;;5044926;28;19928;-86
2023/12/02 13:07:15;;;;;;;;;;;;;;;;;;5015818;28;19921;-86
2023/12/02 13:09:40;;;;;;;;;;;;;;;;;;5040724;28;19921;-86
2023/12/02 13:12:05;;;;;;;;;;;;;;;;;;5015420;28;19926;-86
2023/12/02 13:14:32;;;;;;;;;;;;;;;;;;5016875;28;20392;-86
2023/12/02 13:16:57;;;;;;;;;;;;;;;;;;5041301;28;19928;-86
2023/12/02 13:19:22;;;;;;;;;;;;;;;;;;5044477;28;20397;-86
2023/12/02 13:21:47;;;;;;;;;;;;;;;;;;5015235;28;19925;-86
2023/12/02 13:24:13;;;;;;;;;;;;;;;;;;5041752;28;19936;-86
2023/12/02 13:26:38;;;;;;;;;;;;;;;;;;5048262;28;19975;-86
2023/12/02 13:29:06;;;;;;;;;;;;;;;;;;5047144;28;19972;-86
2023/12/02 13:31:31;;;;;;;;;;;;;;;;;;5047547;28;19925;-86
2023/12/02 13:33:56;;;;;;;;;;;;;;;;;;5040218;28;19922;-86
2023/12/02 13:36:22;;;;;;;;;;;;;;;;;;5044384;28;19928;-86
2023/12/02 13:38:47;;;;;;;;;;;;;;;;;;5041223;28;20155;-86
2023/12/02 13:41:13;;;;;;;;;;;;;;;;;;5016320;28;20323;-86
2023/12/02 13:43:38;;;;;;;;;;;;;;;;;;5045096;28;19944;-85
2023/12/02 13:46:03;;;;;;;;;;;;;;;;;;5043327;28;19925;-86
2023/12/02 13:48:29;;;;;;;;;;;;;;;;;;5015284;28;20011;-86
2023/12/02 13:50:54;;;;;;;;;;;;;;;;;;5023188;28;19917;-86
2023/12/02 13:53:20;;;;;;;;;;;;;;;;;;5009919;28;19953;-86
2023/12/02 13:55:45;;;;;;;;;;;;;;;;;;5013402;28;19937;-86
2023/12/02 13:58:10;;;;;;;;;;;;;;;;;;5017480;28;19928;-86
2023/12/02 14:00:35;;;;;;;;;;;;;;;;;;5014602;28;19929;-86
2023/12/02 14:03:00;;;;;;;;;;;;;;;;;;5015910;28;19989;-86
2023/12/02 14:05:25;;;;;;;;;;;;;;;;;;5013279;28;19921;-87
2023/12/02 14:07:51;;;;;;;;;;;;;;;;;;5014714;28;19925;-86
2023/12/02 14:10:16;;;;;;;;;;;;;;;;;;5013543;28;20299;-86
2023/12/02 14:12:41;;;;;;;;;;;;;;;;;;5014905;28;20024;-86
2023/12/02 14:15:06;;;;;;;;;;;;;;;;;;5014708;28;19918;-87
2023/12/02 14:17:32;;;;;;;;;;;;;;;;;;5017351;28;19936;-87
2023/12/02 14:19:57;;;;;;;;;;;;;;;;;;5022275;28;19953;-86
2023/12/02 14:22:22;;;;;;;;;;;;;;;;;;5020921;28;19917;-87
2023/12/02 14:24:47;;;;;;;;;;;;;;;;;;5020214;28;19918;-87
2023/12/02 14:27:12;;;;;;;;;;;;;;;;;;5021856;28;19930;-87
2023/12/02 14:29:37;;;;;;;;;;;;;;;;;;5023469;28;19975;-87
2023/12/02 14:32:05;;;;;;;;;;;;;;;;;;5050517;28;20346;-87
2023/12/02 14:34:30;;;;;;;;;;;;;;;;;;5021522;28;20406;-89
2023/12/02 14:36:55;;;;;;;;;;;;;;;;;;5034354;28;19922;-89
2023/12/02 14:39:22;;;;;;;;;;;;;;;;;;5012199;28;19980;-88
2023/12/02 14:41:50;;;;;;;;;;;;;;;;;;5038995;28;19930;-86
2023/12/02 14:44:15;;;;;;;;;;;;;;;;;;5013674;28;19940;-87
2023/12/02 14:46:41;;;;;;;;;;;;;;;;;;5017933;28;19921;-88
2023/12/02 14:49:06;;;;;;;;;;;;;;;;;;5045345;28;19965;-86
2023/12/02 14:51:32;;;;;;;;;;;;;;;;;;5023470;28;19960;-86
2023/12/02 14:53:57;;;;;;;;;;;;;;;;;;5042018;28;19925;-86
2023/12/02 14:56:22;;;;;;;;;;;;;;;;;;5013275;28;19956;-86
2023/12/02 14:58:48;;;;;;;;;;;;;;;;;;5033952;28;19980;-86
2023/12/02 15:01:13;;;;;;;;;;;;;;;;;;5014346;28;19976;-86
2023/12/02 15:03:38;;;;;;;;;;;;;;;;;;5028342;28;19922;-87
2023/12/02 15:06:04;;;;;;;;;;;;;;;;;;5007997;28;19917;-86
2023/12/02 15:08:29;;;;;;;;;;;;;;;;;;5013614;28;19918;-86
2023/12/02 15:10:54;;;;;;;;;;;;;;;;;;5031440;28;19925;-86
2023/12/02 15:13:19;;;;;;;;;;;;;;;;;;5006871;28;19949;-86
2023/12/02 15:15:47;;;;;;;;;;;;;;;;;;5015398;28;19918;-87
2023/12/02 15:18:14;;;;;;;;;;;;;;;;;;5015622;28;19975;-86
2023/12/02 15:20:39;;;;;;;;;;;;;;;;;;5015961;28;20005;-86
2023/12/02 15:23:04;;;;;;;;;;;;;;;;;;5039093;28;19949;-86
2023/12/02 15:25:29;;;;;;;;;;;;;;;;;;5013948;28;19918;-86
2023/12/02 15:27:54;;;;;;;;;;;;;;;;;;5014139;28;20337;-86
2023/12/02 15:30:20;;;;;;;;;;;;;;;;;;5030044;28;20371;-86
2023/12/02 15:32:45;;;;;;;;;;;;;;;;;;5013573;28;19929;-86
2023/12/02 15:35:10;;;;;;;;;;;;;;;;;;5017135;28;19929;-86
2023/12/02 15:37:35;;;;;;;;;;;;;;;;;;5013624;28;19921;-87
2023/12/02 15:40:00;;;;;;;;;;;;;;;;;;5014467;28;19921;-86
2023/12/02 15:42:25;;;;;;;;;;;;;;;;;;5032146;28;19922;-86
2023/12/02 15:44:50;;;;;;;;;;;;;;;;;;5012559;28;19976;-86
2023/12/02 15:47:16;;;;;;;;;;;;;;;;;;5013413;28;19921;-87
2023/12/02 15:49:41;;;;;;;;;;;;;;;;;;5013563;28;19922;-86
2023/12/02 15:52:06;;;;;;;;;;;;;;;;;;5037806;28;19948;-87
2023/12/02 15:54:34;;;;;;;;;;;;;;;;;;5014349;28;19928;-87
2023/12/02 15:57:00;;;;;;;;;;;;;;;;;;5038103;28;19941;-86
2023/12/02 15:59:25;;;;;;;;;;;;;;;;;;5011915;28;20363;-86
2023/12/02 16:01:50;;;;;;;;;;;;;;;;;;5042403;28;19992;-86
2023/12/02 16:07:04;;;;;;;;;;;;;;;;;;5089328;23;19930;-83
2023/12/02 16:09:29;;;;;;;;;;;;;;;;;;5070279;28;19986;-85
2023/12/02 16:11:54;;;;;;;;;;;;;;;;;;5069281;28;20442;-84
2023/12/02 16:14:19;;;;;;;;;;;;;;;;;;5072659;28;19931;-84
2023/12/02 16:16:49;;;;;;;;;;;;;;;;;;5052348;28;19984;-85
2023/12/02 16:19:15;;;;;;;;;;;;;;;;;;5048045;28;20385;-85
2023/12/02 16:21:40;;;;;;;;;;;;;;;;;;5081330;28;19927;-84
2023/12/02 16:24:06;;;;;;;;;;;;;;;;;;5071901;28;19925;-88
2023/12/02 16:26:31;;;;;;;;;;;;;;;;;;5074675;22;19936;-86
2023/12/02 16:28:56;;;;;;;;;;;;;;;;;;5018891;28;20349;-86
2023/12/02 16:31:21;;;;;;;;;;;;;;;;;;5041752;28;20384;-86
2023/12/02 16:33:46;;;;;;;;;;;;;;;;;;5031963;28;19924;-85
2023/12/02 16:36:11;;;;;;;;;;;;;;;;;;5030743;28;19921;-86
2023/12/02 16:38:40;;;;;;;;;;;;;;;;;;5051022;28;19995;-86